Terminal Aerodrome Forecast
Issued by NWS Wilmington, NC

Home | Current Version | Previous Version | Text Only | Print | Product List | Glossary On
Versions: 1 2 3 4 5 6 7 8 9 10 11 12 13 14 15 16 17
000
FTUS42 KILM 302323
TAFLBT
TAF
KLBT 302323Z 3100/3124 26006KT P6SM VCTS SCT040CB SCT120
      TEMPO 3100/3101 VRB15KT 6SM TSRA BKN040CB
     FM310800 22005KT P6SM SCT035 BKN250
     FM311400 23010KT P6SM VCTS FEW020 BKN050CB
     FM312200 19007KT P6SM BKN250=

USA.gov is the U.S. government's official web portal to all federal, state and local government web resources and services.